sensor_id;sensor_type;location;lat;lon;timestamp;temperature;humidity
37242;DHT22;23135;51.078;12.108;2024-03-06T00:00:35;4.20;99.90
37242;DHT22;23135;51.078;12.108;2024-03-06T00:03:00;4.20;99.90
37242;DHT22;23135;51.078;12.108;2024-03-06T00:05:26;4.20;99.90
37242;DHT22;23135;51.078;12.108;2024-03-06T00:07:51;4.20;99.90
37242;DHT22;23135;51.078;12.108;2024-03-06T00:10:17;4.20;99.90
37242;DHT22;23135;51.078;12.108;2024-03-06T00:12:42;4.20;99.90
37242;DHT22;23135;51.078;12.108;2024-03-06T00:15:08;4.20;99.90
37242;DHT22;23135;51.078;12.108;2024-03-06T00:17:33;4.20;99.90
37242;DHT22;23135;51.078;12.108;2024-03-06T00:19:59;4.20;99.90
37242;DHT22;23135;51.078;12.108;2024-03-06T00:22:25;4.20;99.90
37242;DHT22;23135;51.078;12.108;2024-03-06T00:24:51;4.20;99.90
37242;DHT22;23135;51.078;12.108;2024-03-06T00:27:16;4.20;99.90
37242;DHT22;23135;51.078;12.108;2024-03-06T00:29:42;4.20;99.90
37242;DHT22;23135;51.078;12.108;2024-03-06T00:32:08;4.20;99.90
37242;DHT22;23135;51.078;12.108;2024-03-06T00:34:33;4.20;99.90
37242;DHT22;23135;51.078;12.108;2024-03-06T00:36:59;4.20;99.90
37242;DHT22;23135;51.078;12.108;2024-03-06T00:39:25;4.20;99.90
37242;DHT22;23135;51.078;12.108;2024-03-06T00:41:50;4.20;99.90
37242;DHT22;23135;51.078;12.108;2024-03-06T00:44:16;4.20;99.90
37242;DHT22;23135;51.078;12.108;2024-03-06T00:46:42;4.20;99.90
37242;DHT22;23135;51.078;12.108;2024-03-06T00:49:08;4.20;99.90
37242;DHT22;23135;51.078;12.108;2024-03-06T00:51:34;4.20;99.90
37242;DHT22;23135;51.078;12.108;2024-03-06T00:54:03;4.20;99.90
37242;DHT22;23135;51.078;12.108;2024-03-06T00:56:29;4.20;99.90
37242;DHT22;23135;51.078;12.108;2024-03-06T00:58:56;4.20;99.90
37242;DHT22;23135;51.078;12.108;2024-03-06T01:01:21;4.20;99.90
37242;DHT22;23135;51.078;12.108;2024-03-06T01:03:47;4.20;99.90
37242;DHT22;23135;51.078;12.108;2024-03-06T01:06:13;4.20;99.90
37242;DHT22;23135;51.078;12.108;2024-03-06T01:08:38;4.20;99.90
37242;DHT22;23135;51.078;12.108;2024-03-06T01:11:04;4.10;99.90
37242;DHT22;23135;51.078;12.108;2024-03-06T01:13:30;4.10;99.90
37242;DHT22;23135;51.078;12.108;2024-03-06T01:15:55;4.10;99.90
37242;DHT22;23135;51.078;12.108;2024-03-06T01:18:21;4.00;99.90
37242;DHT22;23135;51.078;12.108;2024-03-06T01:20:47;4.00;99.90
37242;DHT22;23135;51.078;12.108;2024-03-06T01:23:12;4.00;99.90
37242;DHT22;23135;51.078;12.108;2024-03-06T01:25:38;3.90;99.90
37242;DHT22;23135;51.078;12.108;2024-03-06T01:28:03;3.90;99.90
37242;DHT22;23135;51.078;12.108;2024-03-06T01:30:29;3.90;99.90
37242;DHT22;23135;51.078;12.108;2024-03-06T01:32:55;3.80;99.90
37242;DHT22;23135;51.078;12.108;2024-03-06T01:35:20;3.80;99.90
37242;DHT22;23135;51.078;12.108;2024-03-06T01:37:46;3.80;99.90
37242;DHT22;23135;51.078;12.108;2024-03-06T01:40:11;3.80;99.90
37242;DHT22;23135;51.078;12.108;2024-03-06T01:42:38;3.80;99.90
37242;DHT22;23135;51.078;12.108;2024-03-06T01:45:04;3.80;99.90
37242;DHT22;23135;51.078;12.108;2024-03-06T01:47:30;3.80;99.90
37242;DHT22;23135;51.078;12.108;2024-03-06T01:49:56;3.70;99.90
37242;DHT22;23135;51.078;12.108;2024-03-06T01:52:22;3.70;99.90
37242;DHT22;23135;51.078;12.108;2024-03-06T01:54:48;3.60;99.90
37242;DHT22;23135;51.078;12.108;2024-03-06T01:57:16;3.60;99.90
37242;DHT22;23135;51.078;12.108;2024-03-06T01:59:42;3.60;99.90
37242;DHT22;23135;51.078;12.108;2024-03-06T02:02:08;3.60;99.90
37242;DHT22;23135;51.078;12.108;2024-03-06T02:04:39;3.60;99.90
37242;DHT22;23135;51.078;12.108;2024-03-06T02:07:09;3.50;99.90
37242;DHT22;23135;51.078;12.108;2024-03-06T02:09:38;3.50;99.90
37242;DHT22;23135;51.078;12.108;2024-03-06T02:12:06;3.50;99.90
37242;DHT22;23135;51.078;12.108;2024-03-06T02:14:34;3.40;99.90
37242;DHT22;23135;51.078;12.108;2024-03-06T02:17:00;3.40;99.90
37242;DHT22;23135;51.078;12.108;2024-03-06T02:19:37;3.40;99.90
37242;DHT22;23135;51.078;12.108;2024-03-06T02:22:03;3.40;99.90
37242;DHT22;23135;51.078;12.108;2024-03-06T02:24:28;3.30;99.90
37242;DHT22;23135;51.078;12.108;2024-03-06T02:26:54;3.30;99.90
37242;DHT22;23135;51.078;12.108;2024-03-06T02:29:23;3.30;99.90
37242;DHT22;23135;51.078;12.108;2024-03-06T02:31:49;3.30;99.90
37242;DHT22;23135;51.078;12.108;2024-03-06T02:34:14;3.30;99.90
37242;DHT22;23135;51.078;12.108;2024-03-06T02:36:40;3.30;99.90
37242;DHT22;23135;51.078;12.108;2024-03-06T02:39:05;3.30;99.90
37242;DHT22;23135;51.078;12.108;2024-03-06T02:41:36;3.30;99.90
37242;DHT22;23135;51.078;12.108;2024-03-06T02:44:03;3.30;99.90
37242;DHT22;23135;51.078;12.108;2024-03-06T02:46:29;3.30;99.90
37242;DHT22;23135;51.078;12.108;2024-03-06T02:48:54;3.30;99.90
37242;DHT22;23135;51.078;12.108;2024-03-06T02:51:20;3.30;99.90
37242;DHT22;23135;51.078;12.108;2024-03-06T02:53:46;3.20;99.90
37242;DHT22;23135;51.078;12.108;2024-03-06T02:56:18;3.20;99.90
37242;DHT22;23135;51.078;12.108;2024-03-06T02:58:43;3.20;99.90
37242;DHT22;23135;51.078;12.108;2024-03-06T03:01:10;3.20;99.90
37242;DHT22;23135;51.078;12.108;2024-03-06T03:03:35;3.10;99.90
37242;DHT22;23135;51.078;12.108;2024-03-06T03:06:01;3.10;99.90
37242;DHT22;23135;51.078;12.108;2024-03-06T03:08:27;3.00;99.90
37242;DHT22;23135;51.078;12.108;2024-03-06T03:10:52;3.00;99.90
37242;DHT22;23135;51.078;12.108;2024-03-06T03:13:18;2.90;99.90
37242;DHT22;23135;51.078;12.108;2024-03-06T03:15:43;2.90;99.90
37242;DHT22;23135;51.078;12.108;2024-03-06T03:18:09;2.80;99.90
37242;DHT22;23135;51.078;12.108;2024-03-06T03:20:35;2.80;99.90
37242;DHT22;23135;51.078;12.108;2024-03-06T03:23:01;2.80;99.90
37242;DHT22;23135;51.078;12.108;2024-03-06T03:25:27;2.70;99.90
37242;DHT22;23135;51.078;12.108;2024-03-06T03:27:53;2.70;99.90
37242;DHT22;23135;51.078;12.108;2024-03-06T03:30:18;2.60;99.90
37242;DHT22;23135;51.078;12.108;2024-03-06T03:32:47;2.50;99.90
37242;DHT22;23135;51.078;12.108;2024-03-06T03:35:14;2.40;99.90
37242;DHT22;23135;51.078;12.108;2024-03-06T03:37:39;2.40;99.90
37242;DHT22;23135;51.078;12.108;2024-03-06T03:40:06;2.30;99.90
37242;DHT22;23135;51.078;12.108;2024-03-06T03:42:32;2.30;99.90
37242;DHT22;23135;51.078;12.108;2024-03-06T03:44:57;2.20;99.90
37242;DHT22;23135;51.078;12.108;2024-03-06T03:47:23;2.20;99.90
37242;DHT22;23135;51.078;12.108;2024-03-06T03:49:48;2.10;99.90
37242;DHT22;23135;51.078;12.108;2024-03-06T03:52:15;2.10;99.90
37242;DHT22;23135;51.078;12.108;2024-03-06T03:54:40;2.10;99.90
37242;DHT22;23135;51.078;12.108;2024-03-06T03:57:06;2.10;99.90
37242;DHT22;23135;51.078;12.108;2024-03-06T03:59:33;2.00;99.90
37242;DHT22;23135;51.078;12.108;2024-03-06T04:01:59;1.90;99.90
37242;DHT22;23135;51.078;12.108;2024-03-06T04:04:25;1.90;99.90
37242;DHT22;23135;51.078;12.108;2024-03-06T04:06:50;1.70;99.90
37242;DHT22;23135;51.078;12.108;2024-03-06T04:09:16;1.70;99.90
37242;DHT22;23135;51.078;12.108;2024-03-06T04:11:42;1.60;99.90
37242;DHT22;23135;51.078;12.108;2024-03-06T04:14:07;1.60;99.90
37242;DHT22;23135;51.078;12.108;2024-03-06T04:16:33;1.60;99.90
37242;DHT22;23135;51.078;12.108;2024-03-06T04:18:59;1.60;99.90
37242;DHT22;23135;51.078;12.108;2024-03-06T04:21:25;1.70;99.90
37242;DHT22;23135;51.078;12.108;2024-03-06T04:23:53;1.70;99.90
37242;DHT22;23135;51.078;12.108;2024-03-06T04:26:18;1.70;99.90
37242;DHT22;23135;51.078;12.108;2024-03-06T04:28:44;1.70;99.90
37242;DHT22;23135;51.078;12.108;2024-03-06T04:31:10;1.70;99.90
37242;DHT22;23135;51.078;12.108;2024-03-06T04:33:36;1.70;99.90
37242;DHT22;23135;51.078;12.108;2024-03-06T04:36:04;1.60;99.90
37242;DHT22;23135;51.078;12.108;2024-03-06T04:38:34;1.70;99.90
37242;DHT22;23135;51.078;12.108;2024-03-06T04:40:59;1.60;99.90
37242;DHT22;23135;51.078;12.108;2024-03-06T04:43:25;1.60;99.90
37242;DHT22;23135;51.078;12.108;2024-03-06T04:45:50;1.50;99.90
37242;DHT22;23135;51.078;12.108;2024-03-06T04:48:16;1.50;99.90
37242;DHT22;23135;51.078;12.108;2024-03-06T04:50:42;1.50;99.90
37242;DHT22;23135;51.078;12.108;2024-03-06T04:53:08;1.40;99.90
37242;DHT22;23135;51.078;12.108;2024-03-06T04:55:33;1.40;99.90
37242;DHT22;23135;51.078;12.108;2024-03-06T04:58:02;1.30;99.90
37242;DHT22;23135;51.078;12.108;2024-03-06T05:00:28;1.30;99.90
37242;DHT22;23135;51.078;12.108;2024-03-06T05:02:54;1.30;99.90
37242;DHT22;23135;51.078;12.108;2024-03-06T05:05:21;1.30;99.90
37242;DHT22;23135;51.078;12.108;2024-03-06T05:07:48;1.40;99.90
37242;DHT22;23135;51.078;12.108;2024-03-06T05:10:13;1.30;99.90
37242;DHT22;23135;51.078;12.108;2024-03-06T05:12:41;1.30;99.90
37242;DHT22;23135;51.078;12.108;2024-03-06T05:15:06;1.30;99.90
37242;DHT22;23135;51.078;12.108;2024-03-06T05:17:33;1.30;99.90
37242;DHT22;23135;51.078;12.108;2024-03-06T05:19:59;1.30;99.90
37242;DHT22;23135;51.078;12.108;2024-03-06T05:22:25;1.40;99.90
37242;DHT22;23135;51.078;12.108;2024-03-06T05:24:51;1.30;99.90
37242;DHT22;23135;51.078;12.108;2024-03-06T05:27:18;1.30;99.90
37242;DHT22;23135;51.078;12.108;2024-03-06T05:29:44;1.30;99.90
37242;DHT22;23135;51.078;12.108;2024-03-06T05:32:10;1.30;99.90
37242;DHT22;23135;51.078;12.108;2024-03-06T05:34:35;1.30;99.90
37242;DHT22;23135;51.078;12.108;2024-03-06T05:37:01;1.30;99.90
37242;DHT22;23135;51.078;12.108;2024-03-06T05:39:30;1.20;99.90
37242;DHT22;23135;51.078;12.108;2024-03-06T05:42:03;1.10;99.90
37242;DHT22;23135;51.078;12.108;2024-03-06T05:44:30;1.00;99.90
37242;DHT22;23135;51.078;12.108;2024-03-06T05:46:57;1.00;99.90
37242;DHT22;23135;51.078;12.108;2024-03-06T05:49:22;0.90;99.90
37242;DHT22;23135;51.078;12.108;2024-03-06T05:51:48;0.90;99.90
37242;DHT22;23135;51.078;12.108;2024-03-06T05:54:13;0.80;99.90
37242;DHT22;23135;51.078;12.108;2024-03-06T05:56:39;0.80;99.90
37242;DHT22;23135;51.078;12.108;2024-03-06T05:59:05;0.80;99.90
37242;DHT22;23135;51.078;12.108;2024-03-06T06:01:36;0.80;99.90
37242;DHT22;23135;51.078;12.108;2024-03-06T06:04:02;0.90;99.90
37242;DHT22;23135;51.078;12.108;2024-03-06T06:06:28;0.90;99.90
37242;DHT22;23135;51.078;12.108;2024-03-06T06:08:53;0.90;99.90
37242;DHT22;23135;51.078;12.108;2024-03-06T06:11:19;1.00;99.90
37242;DHT22;23135;51.078;12.108;2024-03-06T06:13:45;1.00;99.90
37242;DHT22;23135;51.078;12.108;2024-03-06T06:16:10;1.10;99.90
37242;DHT22;23135;51.078;12.108;2024-03-06T06:18:36;1.10;99.90
37242;DHT22;23135;51.078;12.108;2024-03-06T06:21:02;1.20;99.90
37242;DHT22;23135;51.078;12.108;2024-03-06T06:23:30;1.20;99.90
37242;DHT22;23135;51.078;12.108;2024-03-06T06:25:55;1.20;99.90
37242;DHT22;23135;51.078;12.108;2024-03-06T06:28:21;1.30;99.90
37242;DHT22;23135;51.078;12.108;2024-03-06T06:30:48;1.30;99.90
37242;DHT22;23135;51.078;12.108;2024-03-06T06:33:13;1.30;99.90
37242;DHT22;23135;51.078;12.108;2024-03-06T06:35:39;1.30;99.90
37242;DHT22;23135;51.078;12.108;2024-03-06T06:38:05;1.30;99.90
37242;DHT22;23135;51.078;12.108;2024-03-06T06:40:30;1.40;99.90
37242;DHT22;23135;51.078;12.108;2024-03-06T06:42:56;1.40;99.90
37242;DHT22;23135;51.078;12.108;2024-03-06T06:45:22;1.50;99.90
37242;DHT22;23135;51.078;12.108;2024-03-06T06:47:48;1.50;99.90
37242;DHT22;23135;51.078;12.108;2024-03-06T06:50:14;1.60;99.90
37242;DHT22;23135;51.078;12.108;2024-03-06T06:52:40;1.60;99.90
37242;DHT22;23135;51.078;12.108;2024-03-06T06:55:06;1.70;99.90
37242;DHT22;23135;51.078;12.108;2024-03-06T06:57:32;1.80;99.90
37242;DHT22;23135;51.078;12.108;2024-03-06T06:59:59;1.80;99.90
37242;DHT22;23135;51.078;12.108;2024-03-06T07:02:24;1.90;99.90
37242;DHT22;23135;51.078;12.108;2024-03-06T07:04:51;2.00;99.90
37242;DHT22;23135;51.078;12.108;2024-03-06T07:07:16;2.00;99.90
37242;DHT22;23135;51.078;12.108;2024-03-06T07:09:43;2.00;99.90
37242;DHT22;23135;51.078;12.108;2024-03-06T07:12:09;2.00;99.90
37242;DHT22;23135;51.078;12.108;2024-03-06T07:14:34;2.10;99.90
37242;DHT22;23135;51.078;12.108;2024-03-06T07:17:00;2.10;99.90
37242;DHT22;23135;51.078;12.108;2024-03-06T07:19:26;2.10;99.90
37242;DHT22;23135;51.078;12.108;2024-03-06T07:21:51;2.20;99.90
37242;DHT22;23135;51.078;12.108;2024-03-06T07:24:17;2.20;99.90
37242;DHT22;23135;51.078;12.108;2024-03-06T07:26:43;2.20;99.90
37242;DHT22;23135;51.078;12.108;2024-03-06T07:29:09;2.30;99.90
37242;DHT22;23135;51.078;12.108;2024-03-06T07:31:40;2.40;99.90
37242;DHT22;23135;51.078;12.108;2024-03-06T07:34:07;2.40;99.90
37242;DHT22;23135;51.078;12.108;2024-03-06T07:36:34;2.50;99.90
37242;DHT22;23135;51.078;12.108;2024-03-06T07:39:00;2.60;99.90
37242;DHT22;23135;51.078;12.108;2024-03-06T07:41:26;2.60;99.90
37242;DHT22;23135;51.078;12.108;2024-03-06T07:43:51;2.60;99.90
37242;DHT22;23135;51.078;12.108;2024-03-06T07:46:17;2.70;99.90
37242;DHT22;23135;51.078;12.108;2024-03-06T07:48:43;2.80;99.90
37242;DHT22;23135;51.078;12.108;2024-03-06T07:51:12;2.90;99.90
37242;DHT22;23135;51.078;12.108;2024-03-06T07:53:38;3.00;99.90
37242;DHT22;23135;51.078;12.108;2024-03-06T07:56:03;3.10;99.90
37242;DHT22;23135;51.078;12.108;2024-03-06T07:58:29;3.10;99.90
37242;DHT22;23135;51.078;12.108;2024-03-06T08:00:55;3.10;99.90
37242;DHT22;23135;51.078;12.108;2024-03-06T08:03:22;3.30;99.90
37242;DHT22;23135;51.078;12.108;2024-03-06T08:05:51;3.50;99.90
37242;DHT22;23135;51.078;12.108;2024-03-06T08:08:18;3.70;99.90
37242;DHT22;23135;51.078;12.108;2024-03-06T08:10:43;3.80;99.90
37242;DHT22;23135;51.078;12.108;2024-03-06T08:13:10;4.00;99.90
37242;DHT22;23135;51.078;12.108;2024-03-06T08:15:36;4.20;99.90
37242;DHT22;23135;51.078;12.108;2024-03-06T08:18:01;4.50;99.90
37242;DHT22;23135;51.078;12.108;2024-03-06T08:20:29;4.70;99.90
37242;DHT22;23135;51.078;12.108;2024-03-06T08:22:56;5.00;99.90
37242;DHT22;23135;51.078;12.108;2024-03-06T08:25:22;4.90;99.90
37242;DHT22;23135;51.078;12.108;2024-03-06T08:27:48;5.10;99.90
37242;DHT22;23135;51.078;12.108;2024-03-06T08:30:13;5.30;99.90
37242;DHT22;23135;51.078;12.108;2024-03-06T08:32:39;5.30;99.90
37242;DHT22;23135;51.078;12.108;2024-03-06T08:35:06;5.30;99.90
37242;DHT22;23135;51.078;12.108;2024-03-06T08:37:34;5.40;99.90
37242;DHT22;23135;51.078;12.108;2024-03-06T08:40:00;5.50;99.90
37242;DHT22;23135;51.078;12.108;2024-03-06T08:42:27;5.80;99.90
37242;DHT22;23135;51.078;12.108;2024-03-06T08:44:52;5.70;99.90
37242;DHT22;23135;51.078;12.108;2024-03-06T08:47:18;5.80;99.90
37242;DHT22;23135;51.078;12.108;2024-03-06T08:49:43;5.80;99.90
37242;DHT22;23135;51.078;12.108;2024-03-06T08:52:09;5.90;99.90
37242;DHT22;23135;51.078;12.108;2024-03-06T08:54:37;6.10;99.90
37242;DHT22;23135;51.078;12.108;2024-03-06T08:57:04;6.30;99.90
37242;DHT22;23135;51.078;12.108;2024-03-06T08:59:30;6.50;99.90
37242;DHT22;23135;51.078;12.108;2024-03-06T09:01:55;6.60;99.90
37242;DHT22;23135;51.078;12.108;2024-03-06T09:04:22;6.50;99.90
37242;DHT22;23135;51.078;12.108;2024-03-06T09:06:47;6.60;99.90
37242;DHT22;23135;51.078;12.108;2024-03-06T09:09:14;6.50;99.90
37242;DHT22;23135;51.078;12.108;2024-03-06T09:11:41;6.60;99.90
37242;DHT22;23135;51.078;12.108;2024-03-06T09:14:07;6.70;99.90
37242;DHT22;23135;51.078;12.108;2024-03-06T09:16:34;6.90;99.90
37242;DHT22;23135;51.078;12.108;2024-03-06T09:19:00;6.90;99.90
37242;DHT22;23135;51.078;12.108;2024-03-06T09:21:25;6.90;99.90
37242;DHT22;23135;51.078;12.108;2024-03-06T09:23:51;7.00;99.90
37242;DHT22;23135;51.078;12.108;2024-03-06T09:26:17;7.10;99.90
37242;DHT22;23135;51.078;12.108;2024-03-06T09:28:43;7.10;99.90
37242;DHT22;23135;51.078;12.108;2024-03-06T09:31:08;7.00;99.90
37242;DHT22;23135;51.078;12.108;2024-03-06T09:33:34;7.10;99.90
37242;DHT22;23135;51.078;12.108;2024-03-06T09:36:00;7.00;99.90
37242;DHT22;23135;51.078;12.108;2024-03-06T09:38:26;7.10;99.90
37242;DHT22;23135;51.078;12.108;2024-03-06T09:40:53;7.10;99.90
37242;DHT22;23135;51.078;12.108;2024-03-06T09:43:20;7.10;99.90
37242;DHT22;23135;51.078;12.108;2024-03-06T09:45:48;7.30;99.90
37242;DHT22;23135;51.078;12.108;2024-03-06T09:48:18;7.30;99.90
37242;DHT22;23135;51.078;12.108;2024-03-06T09:50:46;7.30;99.90
37242;DHT22;23135;51.078;12.108;2024-03-06T09:53:16;7.30;99.90
37242;DHT22;23135;51.078;12.108;2024-03-06T09:55:42;7.30;99.90
37242;DHT22;23135;51.078;12.108;2024-03-06T09:58:08;7.30;99.90
37242;DHT22;23135;51.078;12.108;2024-03-06T10:00:37;7.30;99.90
37242;DHT22;23135;51.078;12.108;2024-03-06T10:03:03;7.40;99.90
37242;DHT22;23135;51.078;12.108;2024-03-06T10:05:34;7.50;99.90
37242;DHT22;23135;51.078;12.108;2024-03-06T10:08:04;7.60;99.90
37242;DHT22;23135;51.078;12.108;2024-03-06T10:10:30;7.60;99.90
37242;DHT22;23135;51.078;12.108;2024-03-06T10:12:56;7.70;99.90
37242;DHT22;23135;51.078;12.108;2024-03-06T10:15:22;7.80;99.90
37242;DHT22;23135;51.078;12.108;2024-03-06T10:17:48;7.90;99.90
37242;DHT22;23135;51.078;12.108;2024-03-06T10:20:21;8.00;99.90
37242;DHT22;23135;51.078;12.108;2024-03-06T10:22:51;8.10;99.90
37242;DHT22;23135;51.078;12.108;2024-03-06T10:25:20;8.30;99.90
37242;DHT22;23135;51.078;12.108;2024-03-06T10:30:27;8.70;99.90
37242;DHT22;23135;51.078;12.108;2024-03-06T10:32:53;8.90;99.90
37242;DHT22;23135;51.078;12.108;2024-03-06T10:35:20;8.90;99.90
37242;DHT22;23135;51.078;12.108;2024-03-06T10:37:46;8.70;99.90
37242;DHT22;23135;51.078;12.108;2024-03-06T10:40:14;8.80;99.90
37242;DHT22;23135;51.078;12.108;2024-03-06T10:42:41;8.80;99.90
37242;DHT22;23135;51.078;12.108;2024-03-06T10:45:13;9.00;99.90
37242;DHT22;23135;51.078;12.108;2024-03-06T10:47:39;9.10;99.90
37242;DHT22;23135;51.078;12.108;2024-03-06T10:50:06;9.30;99.90
37242;DHT22;23135;51.078;12.108;2024-03-06T10:52:36;9.20;99.90
37242;DHT22;23135;51.078;12.108;2024-03-06T10:55:03;9.30;99.90
37242;DHT22;23135;51.078;12.108;2024-03-06T10:57:29;9.50;99.90
37242;DHT22;23135;51.078;12.108;2024-03-06T10:59:56;9.30;99.90
37242;DHT22;23135;51.078;12.108;2024-03-06T11:02:25;9.40;99.90
37242;DHT22;23135;51.078;12.108;2024-03-06T11:04:53;9.50;99.90
37242;DHT22;23135;51.078;12.108;2024-03-06T11:07:19;9.60;99.90
37242;DHT22;23135;51.078;12.108;2024-03-06T11:09:45;9.80;99.90
37242;DHT22;23135;51.078;12.108;2024-03-06T11:12:36;9.90;99.90
37242;DHT22;23135;51.078;12.108;2024-03-06T11:15:13;9.90;99.90
37242;DHT22;23135;51.078;12.108;2024-03-06T11:17:39;9.80;99.90
37242;DHT22;23135;51.078;12.108;2024-03-06T11:28:22;9.30;99.90
37242;DHT22;23135;51.078;12.108;2024-03-06T11:33:41;9.70;99.90
37242;DHT22;23135;51.078;12.108;2024-03-06T11:36:17;9.80;99.90
37242;DHT22;23135;51.078;12.108;2024-03-06T11:38:55;9.80;99.90
37242;DHT22;23135;51.078;12.108;2024-03-06T11:41:22;10.10;99.90
37242;DHT22;23135;51.078;12.108;2024-03-06T11:43:48;10.30;99.90
37242;DHT22;23135;51.078;12.108;2024-03-06T11:46:16;10.20;99.90
37242;DHT22;23135;51.078;12.108;2024-03-06T11:48:43;10.20;99.90
37242;DHT22;23135;51.078;12.108;2024-03-06T11:51:09;10.30;99.90
37242;DHT22;23135;51.078;12.108;2024-03-06T11:53:35;10.30;99.90
37242;DHT22;23135;51.078;12.108;2024-03-06T11:56:02;10.10;99.90
37242;DHT22;23135;51.078;12.108;2024-03-06T11:58:31;10.20;99.90
37242;DHT22;23135;51.078;12.108;2024-03-06T12:00:56;10.50;99.90
37242;DHT22;23135;51.078;12.108;2024-03-06T12:03:22;10.80;99.90
37242;DHT22;23135;51.078;12.108;2024-03-06T12:05:50;10.70;99.90
37242;DHT22;23135;51.078;12.108;2024-03-06T12:08:17;10.50;99.90
37242;DHT22;23135;51.078;12.108;2024-03-06T12:10:42;10.50;99.90
37242;DHT22;23135;51.078;12.108;2024-03-06T12:13:08;10.70;99.90
37242;DHT22;23135;51.078;12.108;2024-03-06T12:15:34;10.70;99.90
37242;DHT22;23135;51.078;12.108;2024-03-06T12:18:01;10.70;99.90
37242;DHT22;23135;51.078;12.108;2024-03-06T12:20:26;10.60;99.90
37242;DHT22;23135;51.078;12.108;2024-03-06T12:22:53;10.40;99.90
37242;DHT22;23135;51.078;12.108;2024-03-06T12:25:22;10.70;99.90
37242;DHT22;23135;51.078;12.108;2024-03-06T12:27:49;10.90;99.90
37242;DHT22;23135;51.078;12.108;2024-03-06T12:30:19;11.10;99.90
37242;DHT22;23135;51.078;12.108;2024-03-06T12:32:56;11.00;99.90
37242;DHT22;23135;51.078;12.108;2024-03-06T12:35:26;11.00;99.90
37242;DHT22;23135;51.078;12.108;2024-03-06T12:37:51;11.00;99.90
37242;DHT22;23135;51.078;12.108;2024-03-06T12:40:18;11.10;99.90
37242;DHT22;23135;51.078;12.108;2024-03-06T12:42:43;11.30;99.90
37242;DHT22;23135;51.078;12.108;2024-03-06T12:45:11;10.80;99.90
37242;DHT22;23135;51.078;12.108;2024-03-06T12:47:41;10.60;99.90
37242;DHT22;23135;51.078;12.108;2024-03-06T12:50:07;10.70;99.90
37242;DHT22;23135;51.078;12.108;2024-03-06T12:52:34;10.80;99.90
37242;DHT22;23135;51.078;12.108;2024-03-06T12:55:00;11.10;99.90
37242;DHT22;23135;51.078;12.108;2024-03-06T12:57:26;11.50;99.90
37242;DHT22;23135;51.078;12.108;2024-03-06T12:59:53;11.50;99.90
37242;DHT22;23135;51.078;12.108;2024-03-06T13:02:18;11.00;99.90
37242;DHT22;23135;51.078;12.108;2024-03-06T13:04:44;10.70;99.90
37242;DHT22;23135;51.078;12.108;2024-03-06T13:07:11;10.40;99.90
37242;DHT22;23135;51.078;12.108;2024-03-06T13:09:36;10.30;99.90
37242;DHT22;23135;51.078;12.108;2024-03-06T13:12:02;10.50;99.90
37242;DHT22;23135;51.078;12.108;2024-03-06T13:14:27;10.70;99.90
37242;DHT22;23135;51.078;12.108;2024-03-06T13:16:53;10.50;99.90
37242;DHT22;23135;51.078;12.108;2024-03-06T13:19:18;10.40;99.90
37242;DHT22;23135;51.078;12.108;2024-03-06T13:21:44;10.20;99.90
37242;DHT22;23135;51.078;12.108;2024-03-06T13:24:10;10.10;99.90
37242;DHT22;23135;51.078;12.108;2024-03-06T13:26:35;10.20;99.90
37242;DHT22;23135;51.078;12.108;2024-03-06T13:29:03;10.20;99.90
37242;DHT22;23135;51.078;12.108;2024-03-06T13:31:29;10.00;99.90
37242;DHT22;23135;51.078;12.108;2024-03-06T13:33:55;9.80;99.90
37242;DHT22;23135;51.078;12.108;2024-03-06T13:36:21;9.80;99.90
37242;DHT22;23135;51.078;12.108;2024-03-06T13:38:47;10.20;99.90
37242;DHT22;23135;51.078;12.108;2024-03-06T13:41:13;10.50;99.90
37242;DHT22;23135;51.078;12.108;2024-03-06T13:43:38;10.30;99.90
37242;DHT22;23135;51.078;12.108;2024-03-06T13:46:04;10.10;99.90
37242;DHT22;23135;51.078;12.108;2024-03-06T13:48:30;10.10;99.90
37242;DHT22;23135;51.078;12.108;2024-03-06T13:50:55;10.10;99.90
37242;DHT22;23135;51.078;12.108;2024-03-06T13:53:21;9.70;99.90
37242;DHT22;23135;51.078;12.108;2024-03-06T13:55:46;9.50;99.90
37242;DHT22;23135;51.078;12.108;2024-03-06T13:58:12;9.40;99.90
37242;DHT22;23135;51.078;12.108;2024-03-06T14:00:38;9.80;99.90
37242;DHT22;23135;51.078;12.108;2024-03-06T14:03:03;10.30;99.90
37242;DHT22;23135;51.078;12.108;2024-03-06T14:05:29;10.60;99.90
37242;DHT22;23135;51.078;12.108;2024-03-06T14:07:55;10.90;99.90
37242;DHT22;23135;51.078;12.108;2024-03-06T14:10:22;10.90;99.90
37242;DHT22;23135;51.078;12.108;2024-03-06T14:12:49;10.80;99.90
37242;DHT22;23135;51.078;12.108;2024-03-06T14:15:18;10.70;99.90
37242;DHT22;23135;51.078;12.108;2024-03-06T14:17:44;10.20;99.90
37242;DHT22;23135;51.078;12.108;2024-03-06T14:20:11;9.80;99.90
37242;DHT22;23135;51.078;12.108;2024-03-06T14:22:41;9.80;99.90
37242;DHT22;23135;51.078;12.108;2024-03-06T14:25:08;10.00;99.90
37242;DHT22;23135;51.078;12.108;2024-03-06T14:27:33;10.30;99.90
37242;DHT22;23135;51.078;12.108;2024-03-06T14:30:01;10.40;99.90
37242;DHT22;23135;51.078;12.108;2024-03-06T14:32:28;10.30;99.90
37242;DHT22;23135;51.078;12.108;2024-03-06T14:34:54;9.80;99.90
37242;DHT22;23135;51.078;12.108;2024-03-06T14:37:19;9.40;99.90
37242;DHT22;23135;51.078;12.108;2024-03-06T14:39:45;9.10;99.90
37242;DHT22;23135;51.078;12.108;2024-03-06T14:42:12;9.00;99.90
37242;DHT22;23135;51.078;12.108;2024-03-06T14:44:37;9.20;99.90
37242;DHT22;23135;51.078;12.108;2024-03-06T14:47:03;9.60;99.90
37242;DHT22;23135;51.078;12.108;2024-03-06T14:49:29;10.00;99.90
37242;DHT22;23135;51.078;12.108;2024-03-06T14:51:55;9.90;99.90
37242;DHT22;23135;51.078;12.108;2024-03-06T14:54:21;9.60;99.90
37242;DHT22;23135;51.078;12.108;2024-03-06T14:56:48;9.40;99.90
37242;DHT22;23135;51.078;12.108;2024-03-06T14:59:14;9.20;99.90
37242;DHT22;23135;51.078;12.108;2024-03-06T15:01:39;9.20;99.90
37242;DHT22;23135;51.078;12.108;2024-03-06T15:04:05;9.20;99.90
37242;DHT22;23135;51.078;12.108;2024-03-06T15:06:30;9.00;99.90
37242;DHT22;23135;51.078;12.108;2024-03-06T15:08:57;8.70;99.90
37242;DHT22;23135;51.078;12.108;2024-03-06T15:11:22;8.60;99.90
37242;DHT22;23135;51.078;12.108;2024-03-06T15:13:49;8.50;99.90
37242;DHT22;23135;51.078;12.108;2024-03-06T15:16:16;8.30;99.90
37242;DHT22;23135;51.078;12.108;2024-03-06T15:18:42;8.50;99.90
37242;DHT22;23135;51.078;12.108;2024-03-06T15:21:08;8.70;99.90
37242;DHT22;23135;51.078;12.108;2024-03-06T15:23:34;8.70;99.90
37242;DHT22;23135;51.078;12.108;2024-03-06T15:25:59;8.60;99.90
37242;DHT22;23135;51.078;12.108;2024-03-06T15:28:25;8.40;99.90
37242;DHT22;23135;51.078;12.108;2024-03-06T15:30:51;8.20;99.90
37242;DHT22;23135;51.078;12.108;2024-03-06T15:33:16;7.90;99.90
37242;DHT22;23135;51.078;12.108;2024-03-06T15:35:42;8.00;99.90